Time;durP1;ratioP1;P1;durP2;ratioP2;P2;SDS_P1;SDS_P2;PMS_P1;PMS_P2;Temp;Humidity;BMP_temperature;BMP_pressure;BME280_temperature;BME280_humidity;BME280_pressure;Samples;Min_cycle;Max_cycle;Signal;HPM_P1;HPM_P2
2024/01/03 00:01:58;;;;;;;15.40;1.73;;;;;;;;;;5115011;28;20474;-32
2024/01/03 00:04:29;;;;;;;20.25;3.95;;;;;;;;;;5096606;28;20020;-31
2024/01/03 00:06:55;;;;;;;18.23;1.92;;;;;;;;;;5114713;28;20012;-32
2024/01/03 00:09:20;;;;;;;12.07;3.35;;;;;;;;;;5115085;28;20020;-32
2024/01/03 00:11:45;;;;;;;16.73;2.45;;;;;;;;;;5114952;28;20024;-32
2024/01/03 00:14:22;;;;;;;13.30;2.03;;;;;;;;;;5115045;28;20012;-32
2024/01/03 00:16:47;;;;;;;20.75;2.45;;;;;;;;;;5114964;28;20030;-31
2024/01/03 00:19:15;;;;;;;15.50;2.30;;;;;;;;;;5114647;28;20386;-32
2024/01/03 00:21:40;;;;;;;16.83;2.75;;;;;;;;;;5114831;28;20264;-32
2024/01/03 00:24:07;;;;;;;21.10;2.10;;;;;;;;;;5114579;28;20413;-31
2024/01/03 00:26:33;;;;;;;18.70;2.45;;;;;;;;;;5114393;28;20077;-32
2024/01/03 00:28:58;;;;;;;14.30;2.30;;;;;;;;;;5114446;28;20012;-32
2024/01/03 00:31:23;;;;;;;15.93;2.05;;;;;;;;;;5096515;28;20022;-32
2024/01/03 00:33:48;;;;;;;15.05;2.00;;;;;;;;;;5114529;28;20016;-32
2024/01/03 00:36:15;;;;;;;14.67;1.80;;;;;;;;;;5114666;28;20042;-32
2024/01/03 00:38:42;;;;;;;12.45;1.52;;;;;;;;;;5114288;28;20366;-31
2024/01/03 00:41:12;;;;;;;9.45;1.35;;;;;;;;;;5114509;28;20020;-32
2024/01/03 00:43:38;;;;;;;15.23;2.60;;;;;;;;;;5114487;28;20092;-32
2024/01/03 00:46:06;;;;;;;11.95;1.80;;;;;;;;;;5114159;28;20058;-32
2024/01/03 00:48:32;;;;;;;10.57;1.63;;;;;;;;;;5114140;28;20067;-33
2024/01/03 00:50:57;;;;;;;11.35;1.35;;;;;;;;;;5114054;28;20098;-32
2024/01/03 00:53:24;;;;;;;12.70;1.40;;;;;;;;;;5114432;28;20098;-31
2024/01/03 00:55:49;;;;;;;10.88;1.60;;;;;;;;;;5114062;28;20095;-32
2024/01/03 00:58:14;;;;;;;13.98;2.00;;;;;;;;;;5113536;28;20050;-32
2024/01/03 01:00:40;;;;;;;9.23;1.70;;;;;;;;;;5113814;28;20048;-31
2024/01/03 01:03:05;;;;;;;17.70;2.38;;;;;;;;;;5114250;28;20016;-32
2024/01/03 01:05:31;;;;;;;16.08;2.20;;;;;;;;;;5113888;28;20023;-32
2024/01/03 01:07:56;;;;;;;12.00;2.20;;;;;;;;;;5113965;28;20016;-32
2024/01/03 01:10:21;;;;;;;12.13;2.17;;;;;;;;;;5113870;28;20055;-32
2024/01/03 01:12:47;;;;;;;11.20;2.00;;;;;;;;;;5114078;28;20249;-32
2024/01/03 01:15:12;;;;;;;16.57;2.00;;;;;;;;;;5114428;28;20019;-32
2024/01/03 01:17:37;;;;;;;17.88;2.15;;;;;;;;;;5114362;28;20594;-32
2024/01/03 01:20:02;;;;;;;13.90;2.25;;;;;;;;;;5114320;28;20454;-32
2024/01/03 01:22:27;;;;;;;17.67;2.50;;;;;;;;;;5114056;28;20451;-33
2024/01/03 01:24:53;;;;;;;26.57;2.80;;;;;;;;;;5113691;28;20051;-32
2024/01/03 01:27:18;;;;;;;17.77;2.30;;;;;;;;;;5095497;28;20259;-32
2024/01/03 01:29:43;;;;;;;23.25;2.92;;;;;;;;;;5113697;28;20260;-33
2024/01/03 01:32:08;;;;;;;21.35;3.08;;;;;;;;;;5113623;28;20022;-32
2024/01/03 01:34:34;;;;;;;20.73;3.00;;;;;;;;;;5113988;28;20020;-32
2024/01/03 01:36:59;;;;;;;19.92;3.05;;;;;;;;;;5113920;28;20256;-33
2024/01/03 01:39:24;;;;;;;20.70;2.50;;;;;;;;;;5113641;28;20102;-32
2024/01/03 01:41:49;;;;;;;22.83;2.65;;;;;;;;;;5095271;28;20273;-32
2024/01/03 01:44:14;;;;;;;26.83;3.37;;;;;;;;;;5095376;28;20059;-32
2024/01/03 01:46:40;;;;;;;17.70;2.37;;;;;;;;;;5113472;28;20273;-32
2024/01/03 01:49:06;;;;;;;23.73;3.25;;;;;;;;;;5113529;28;20249;-32
2024/01/03 01:51:32;;;;;;;27.92;3.50;;;;;;;;;;5113550;28;20008;-31
2024/01/03 01:53:57;;;;;;;27.45;3.17;;;;;;;;;;5113524;28;20077;-35
2024/01/03 01:56:23;;;;;;;16.90;2.92;;;;;;;;;;5113713;28;20023;-33
2024/01/03 01:58:49;;;;;;;25.77;3.00;;;;;;;;;;5113482;28;20099;-32
2024/01/03 02:01:14;;;;;;;24.75;3.60;;;;;;;;;;5113303;28;20448;-32
2024/01/03 02:03:39;;;;;;;22.08;3.90;;;;;;;;;;5113589;28;20024;-32
2024/01/03 02:06:06;;;;;;;16.50;2.25;;;;;;;;;;5113270;28;20369;-32
2024/01/03 02:08:31;;;;;;;23.10;2.70;;;;;;;;;;5113571;28;20359;-32
2024/01/03 02:10:56;;;;;;;27.48;3.00;;;;;;;;;;5114893;28;20027;-32
2024/01/03 02:13:21;;;;;;;24.30;3.10;;;;;;;;;;5117155;28;20455;-32
2024/01/03 02:15:46;;;;;;;25.63;3.63;;;;;;;;;;5117016;28;20249;-32
2024/01/03 02:18:12;;;;;;;33.73;3.93;;;;;;;;;;5117062;28;20019;-32
2024/01/03 02:20:38;;;;;;;21.77;3.00;;;;;;;;;;5117235;28;20265;-31
2024/01/03 02:23:03;;;;;;;31.60;3.83;;;;;;;;;;5117504;28;20023;-32
2024/01/03 02:25:28;;;;;;;21.33;2.97;;;;;;;;;;5116865;28;20026;-32
2024/01/03 02:27:53;;;;;;;24.53;3.40;;;;;;;;;;5117354;28;20261;-32
2024/01/03 02:30:19;;;;;;;25.27;3.17;;;;;;;;;;5116810;28;20570;-32
2024/01/03 02:32:44;;;;;;;26.95;3.53;;;;;;;;;;5117082;28;20349;-32
2024/01/03 02:35:09;;;;;;;20.00;3.10;;;;;;;;;;5117032;28;20016;-32
2024/01/03 02:37:35;;;;;;;23.23;2.97;;;;;;;;;;5117234;28;20299;-32
2024/01/03 02:40:00;;;;;;;26.92;3.30;;;;;;;;;;5116875;28;20638;-32
2024/01/03 02:42:25;;;;;;;22.03;2.60;;;;;;;;;;5116590;28;20022;-32
2024/01/03 02:44:50;;;;;;;25.60;3.93;;;;;;;;;;5116533;28;20716;-31
2024/01/03 02:47:15;;;;;;;21.87;3.30;;;;;;;;;;5116992;28;20356;-32
2024/01/03 02:49:40;;;;;;;22.33;3.60;;;;;;;;;;5116368;28;20258;-31
2024/01/03 02:52:06;;;;;;;19.73;2.60;;;;;;;;;;5116997;28;20245;-32
2024/01/03 02:54:31;;;;;;;20.83;3.17;;;;;;;;;;5116341;28;20783;-32
2024/01/03 02:56:57;;;;;;;25.80;3.00;;;;;;;;;;5116299;28;20331;-32
2024/01/03 02:59:24;;;;;;;22.30;3.38;;;;;;;;;;5116348;28;20597;-32
2024/01/03 03:01:49;;;;;;;22.83;3.15;;;;;;;;;;5116371;28;20107;-32
2024/01/03 03:04:14;;;;;;;21.60;2.75;;;;;;;;;;5115995;28;20055;-32
2024/01/03 03:06:39;;;;;;;21.63;3.93;;;;;;;;;;5116543;28;20019;-32
2024/01/03 03:09:05;;;;;;;20.30;2.97;;;;;;;;;;5116269;28;20346;-32
2024/01/03 03:11:30;;;;;;;25.77;3.97;;;;;;;;;;5116089;28;20569;-32
2024/01/03 03:13:55;;;;;;;14.13;2.57;;;;;;;;;;5115891;28;20026;-32
2024/01/03 03:16:20;;;;;;;21.47;2.80;;;;;;;;;;5116418;28;20246;-32
2024/01/03 03:18:45;;;;;;;22.15;2.30;;;;;;;;;;5116459;28;20642;-32
2024/01/03 03:21:11;;;;;;;24.45;3.03;;;;;;;;;;5115658;28;20455;-32
2024/01/03 03:23:36;;;;;;;20.87;3.40;;;;;;;;;;5115766;28;20028;-32
2024/01/03 03:26:03;;;;;;;30.93;3.23;;;;;;;;;;5116270;28;20351;-31
2024/01/03 03:28:28;;;;;;;27.30;2.78;;;;;;;;;;5115877;28;20763;-32
2024/01/03 03:30:53;;;;;;;13.73;2.40;;;;;;;;;;5115942;28;20024;-32
2024/01/03 03:33:18;;;;;;;20.03;3.70;;;;;;;;;;5115900;28;20406;-32
2024/01/03 03:35:43;;;;;;;25.83;3.10;;;;;;;;;;5115493;28;20264;-32
2024/01/03 03:38:09;;;;;;;23.67;2.60;;;;;;;;;;5116046;28;20007;-32
2024/01/03 03:40:34;;;;;;;18.57;2.77;;;;;;;;;;5115535;28;20307;-32
2024/01/03 03:42:59;;;;;;;22.23;3.78;;;;;;;;;;5115634;28;20255;-32
2024/01/03 03:45:24;;;;;;;22.17;3.73;;;;;;;;;;5097141;28;20020;-32
2024/01/03 03:47:50;;;;;;;20.27;3.10;;;;;;;;;;5116404;28;20257;-32
2024/01/03 03:50:15;;;;;;;19.03;2.87;;;;;;;;;;5115319;28;20016;-32
2024/01/03 03:52:40;;;;;;;24.60;3.13;;;;;;;;;;5115242;28;20283;-33
2024/01/03 03:55:06;;;;;;;24.17;2.83;;;;;;;;;;5115173;28;20265;-31
2024/01/03 03:57:31;;;;;;;21.92;3.10;;;;;;;;;;5115325;28;20024;-32
2024/01/03 03:59:56;;;;;;;24.50;3.40;;;;;;;;;;5114998;28;20055;-31
2024/01/03 04:02:23;;;;;;;24.02;2.90;;;;;;;;;;5115044;28;20016;-32
2024/01/03 04:04:48;;;;;;;19.42;3.90;;;;;;;;;;5114939;28;20050;-32
2024/01/03 04:07:13;;;;;;;17.50;2.75;;;;;;;;;;5115161;28;20047;-31
2024/01/03 04:09:42;;;;;;;19.80;2.40;;;;;;;;;;5114922;28;20098;-32
2024/01/03 04:12:10;;;;;;;22.50;3.13;;;;;;;;;;5115023;28;20302;-32
2024/01/03 04:14:36;;;;;;;28.75;2.92;;;;;;;;;;5115071;28;20019;-32
2024/01/03 04:17:02;;;;;;;23.10;3.22;;;;;;;;;;5115043;28;20020;-31
2024/01/03 04:19:27;;;;;;;23.90;3.30;;;;;;;;;;5114892;28;20051;-31
2024/01/03 04:21:52;;;;;;;22.70;2.90;;;;;;;;;;5114630;28;20051;-32
2024/01/03 04:24:17;;;;;;;14.05;2.80;;;;;;;;;;5115183;28;20024;-32
2024/01/03 04:26:42;;;;;;;29.87;3.53;;;;;;;;;;5115033;28;20016;-33
2024/01/03 04:29:08;;;;;;;29.03;3.50;;;;;;;;;;5114477;28;20450;-32
2024/01/03 04:31:33;;;;;;;27.37;3.10;;;;;;;;;;5114746;28;20261;-32
2024/01/03 04:33:58;;;;;;;31.27;5.25;;;;;;;;;;5095704;28;20602;-32
2024/01/03 04:36:23;;;;;;;26.87;3.27;;;;;;;;;;5114980;28;20020;-32
2024/01/03 04:38:48;;;;;;;23.80;3.27;;;;;;;;;;5114938;28;20258;-32
2024/01/03 04:41:15;;;;;;;21.43;2.90;;;;;;;;;;5114532;28;20269;-31
2024/01/03 04:43:40;;;;;;;29.48;3.95;;;;;;;;;;5113657;28;20352;-33
2024/01/03 04:46:05;;;;;;;25.73;3.25;;;;;;;;;;5113702;28;20102;-32
2024/01/03 04:48:31;;;;;;;37.83;4.10;;;;;;;;;;5113682;28;20047;-32
2024/01/03 04:50:56;;;;;;;24.20;3.43;;;;;;;;;;5113708;28;20172;-32
2024/01/03 04:53:21;;;;;;;30.63;4.20;;;;;;;;;;5112913;28;20340;-32
2024/01/03 04:55:46;;;;;;;28.73;3.33;;;;;;;;;;5113463;28;20261;-32
2024/01/03 04:58:11;;;;;;;25.03;3.50;;;;;;;;;;5113941;28;20360;-32
2024/01/03 05:00:36;;;;;;;19.92;3.60;;;;;;;;;;5113885;28;20620;-32
2024/01/03 05:03:02;;;;;;;29.85;3.45;;;;;;;;;;5114624;28;20347;-32
2024/01/03 05:05:27;;;;;;;30.45;4.78;;;;;;;;;;5114130;28;20019;-32
2024/01/03 05:07:54;;;;;;;34.27;4.07;;;;;;;;;;5113923;28;20423;-32
2024/01/03 05:10:19;;;;;;;30.88;4.13;;;;;;;;;;5114113;28;20257;-32
2024/01/03 05:12:44;;;;;;;37.00;5.50;;;;;;;;;;5113967;28;20015;-32
2024/01/03 05:15:09;;;;;;;37.15;4.28;;;;;;;;;;5114096;28;20455;-32
2024/01/03 05:17:35;;;;;;;32.47;4.97;;;;;;;;;;5114408;28;20020;-32
2024/01/03 05:20:00;;;;;;;41.45;4.82;;;;;;;;;;5113777;28;20015;-32
2024/01/03 05:22:25;;;;;;;32.20;4.17;;;;;;;;;;5114364;28;20094;-31
2024/01/03 05:24:51;;;;;;;33.27;4.53;;;;;;;;;;5114079;28;20246;-32
2024/01/03 05:27:16;;;;;;;40.85;5.05;;;;;;;;;;5113616;28;20357;-32
2024/01/03 05:29:41;;;;;;;37.80;5.30;;;;;;;;;;5113708;28;20095;-32
2024/01/03 05:32:07;;;;;;;33.07;4.23;;;;;;;;;;5113698;28;20246;-32
2024/01/03 05:34:32;;;;;;;32.38;3.85;;;;;;;;;;5113659;28;20249;-32
2024/01/03 05:36:57;;;;;;;34.35;3.92;;;;;;;;;;5113941;28;20023;-32
2024/01/03 05:39:22;;;;;;;29.07;4.20;;;;;;;;;;5113678;28;20020;-32
2024/01/03 05:41:48;;;;;;;35.03;4.75;;;;;;;;;;5113869;28;20653;-32
2024/01/03 05:44:13;;;;;;;29.02;4.07;;;;;;;;;;5114074;28;20018;-32
2024/01/03 05:46:38;;;;;;;32.40;4.18;;;;;;;;;;5118337;28;20023;-32
2024/01/03 05:49:05;;;;;;;34.05;4.18;;;;;;;;;;5117607;28;20019;-32
2024/01/03 05:51:30;;;;;;;34.83;4.97;;;;;;;;;;5117781;28;20458;-32
2024/01/03 05:53:56;;;;;;;36.08;4.65;;;;;;;;;;5117504;28;20102;-32
2024/01/03 05:56:21;;;;;;;35.70;4.82;;;;;;;;;;5117717;28;20042;-32
2024/01/03 05:58:46;;;;;;;31.25;4.05;;;;;;;;;;5117712;28;20019;-32
2024/01/03 06:01:11;;;;;;;45.43;4.23;;;;;;;;;;5117301;28;20572;-31
2024/01/03 06:03:37;;;;;;;26.95;3.92;;;;;;;;;;5117686;28;20310;-32
2024/01/03 06:06:02;;;;;;;24.50;3.87;;;;;;;;;;5117218;28;20103;-32
2024/01/03 06:08:27;;;;;;;24.30;3.53;;;;;;;;;;5117236;28;20314;-32
2024/01/03 06:10:52;;;;;;;24.43;3.03;;;;;;;;;;5117246;28;20087;-31
2024/01/03 06:13:17;;;;;;;31.93;4.83;;;;;;;;;;5117072;28;20268;-32
2024/01/03 06:15:43;;;;;;;33.40;4.15;;;;;;;;;;5117663;28;20254;-32
2024/01/03 06:18:10;;;;;;;28.50;4.10;;;;;;;;;;5117017;28;20016;-31
2024/01/03 06:20:35;;;;;;;25.23;3.08;;;;;;;;;;5117119;28;20031;-32
2024/01/03 06:23:00;;;;;;;23.33;3.03;;;;;;;;;;5117441;28;20020;-32
2024/01/03 06:25:25;;;;;;;24.90;3.80;;;;;;;;;;5117468;28;20024;-31
2024/01/03 06:27:53;;;;;;;23.73;3.07;;;;;;;;;;5117158;28;20250;-32
2024/01/03 06:30:18;;;;;;;28.10;3.15;;;;;;;;;;5117088;28;20246;-32
2024/01/03 06:32:43;;;;;;;26.10;2.83;;;;;;;;;;5117403;28;20012;-32
2024/01/03 06:35:08;;;;;;;16.00;2.13;;;;;;;;;;5116770;28;20241;-31
2024/01/03 06:37:34;;;;;;;16.52;2.47;;;;;;;;;;5116745;28;20352;-32
2024/01/03 06:39:59;;;;;;;18.73;3.00;;;;;;;;;;5117011;28;20020;-32
2024/01/03 06:42:24;;;;;;;21.47;2.67;;;;;;;;;;5116579;28;20854;-32
2024/01/03 06:44:49;;;;;;;21.23;2.93;;;;;;;;;;5117151;28;20249;-32
2024/01/03 06:47:14;;;;;;;21.27;3.25;;;;;;;;;;5116669;28;20364;-32
2024/01/03 06:49:39;;;;;;;16.87;2.87;;;;;;;;;;5116486;28;20027;-32
2024/01/03 06:52:05;;;;;;;19.80;2.40;;;;;;;;;;5116415;28;20332;-32
2024/01/03 06:54:30;;;;;;;23.08;2.85;;;;;;;;;;5116633;28;20287;-32
2024/01/03 06:56:55;;;;;;;18.67;2.30;;;;;;;;;;5115829;28;20024;-32
2024/01/03 06:59:20;;;;;;;19.17;2.30;;;;;;;;;;5116403;28;20022;-31
2024/01/03 07:01:46;;;;;;;25.52;2.55;;;;;;;;;;5116415;28;20048;-32
2024/01/03 07:04:11;;;;;;;15.13;2.50;;;;;;;;;;5116231;28;20023;-32
2024/01/03 07:06:36;;;;;;;22.57;3.30;;;;;;;;;;5116352;28;20353;-32
2024/01/03 07:09:01;;;;;;;19.37;3.17;;;;;;;;;;5116179;28;20279;-32
2024/01/03 07:11:26;;;;;;;20.95;3.08;;;;;;;;;;5116581;28;20257;-32
2024/01/03 07:13:51;;;;;;;15.98;2.40;;;;;;;;;;5116495;28;20034;-32
2024/01/03 07:16:18;;;;;;;19.20;3.03;;;;;;;;;;5115944;28;20023;-32
2024/01/03 07:18:43;;;;;;;17.42;2.95;;;;;;;;;;5116232;28;20301;-32
2024/01/03 07:21:08;;;;;;;20.40;2.70;;;;;;;;;;5115883;28;20055;-32
2024/01/03 07:23:33;;;;;;;21.02;3.42;;;;;;;;;;5115805;28;20249;-32
2024/01/03 07:25:58;;;;;;;16.37;2.40;;;;;;;;;;5115727;28;20354;-33
2024/01/03 07:28:24;;;;;;;27.30;3.27;;;;;;;;;;5115920;28;20289;-32
2024/01/03 07:30:49;;;;;;;20.15;2.70;;;;;;;;;;5115998;28;20751;-31
2024/01/03 07:33:14;;;;;;;24.65;3.35;;;;;;;;;;5116183;28;20077;-32
2024/01/03 07:35:39;;;;;;;21.33;3.17;;;;;;;;;;5116168;28;20072;-32
2024/01/03 07:38:05;;;;;;;17.77;2.83;;;;;;;;;;5116115;28;20027;-32
2024/01/03 07:40:31;;;;;;;25.77;3.28;;;;;;;;;;5115501;28;20743;-32
2024/01/03 07:42:56;;;;;;;27.10;2.90;;;;;;;;;;5115688;28;20111;-32
2024/01/03 07:45:21;;;;;;;14.93;2.33;;;;;;;;;;5115820;28;20029;-31
2024/01/03 07:47:46;;;;;;;20.50;2.57;;;;;;;;;;5115353;28;20241;-32
2024/01/03 07:50:12;;;;;;;19.90;2.65;;;;;;;;;;5115423;28;20273;-31
2024/01/03 07:52:37;;;;;;;19.35;2.10;;;;;;;;;;5115465;28;20144;-31
2024/01/03 07:55:02;;;;;;;17.58;2.38;;;;;;;;;;5115154;28;20052;-32
2024/01/03 07:57:27;;;;;;;17.90;2.45;;;;;;;;;;5115104;28;20043;-32
2024/01/03 07:59:53;;;;;;;21.47;3.37;;;;;;;;;;5115043;28;20054;-31
2024/01/03 08:02:18;;;;;;;21.75;3.05;;;;;;;;;;5096819;28;20261;-32
2024/01/03 08:04:43;;;;;;;20.83;2.67;;;;;;;;;;5115218;28;20378;-32
2024/01/03 08:07:08;;;;;;;20.23;2.30;;;;;;;;;;5115025;28;20322;-32
2024/01/03 08:09:34;;;;;;;25.23;2.83;;;;;;;;;;5113895;28;20484;-32
2024/01/03 08:11:59;;;;;;;17.52;2.22;;;;;;;;;;5114706;28;20303;-31
2024/01/03 08:14:25;;;;;;;23.80;2.85;;;;;;;;;;5114835;28;20022;-32
2024/01/03 08:16:50;;;;;;;17.95;2.60;;;;;;;;;;5114937;28;20039;-39
2024/01/03 08:19:15;;;;;;;19.03;2.23;;;;;;;;;;5114758;28;20551;-32
2024/01/03 08:21:40;;;;;;;20.17;2.70;;;;;;;;;;5115233;28;20273;-32
2024/01/03 08:24:05;;;;;;;20.17;2.78;;;;;;;;;;5114787;28;20737;-31
2024/01/03 08:26:31;;;;;;;15.63;3.23;;;;;;;;;;5114469;28;20102;-32
2024/01/03 08:28:56;;;;;;;24.58;3.45;;;;;;;;;;5114799;28;20245;-31
2024/01/03 08:31:21;;;;;;;21.67;3.47;;;;;;;;;;5114500;28;20027;-32
2024/01/03 08:33:47;;;;;;;23.27;3.17;;;;;;;;;;5114433;28;20344;-32
2024/01/03 08:36:13;;;;;;;19.40;2.60;;;;;;;;;;5114879;28;20260;-32
2024/01/03 08:38:38;;;;;;;15.55;2.65;;;;;;;;;;5114398;28;20019;-32
2024/01/03 08:41:11;;;;;;;20.52;2.55;;;;;;;;;;5114669;28;20023;-32
2024/01/03 08:43:36;;;;;;;18.42;2.55;;;;;;;;;;5114687;28;20020;-32
2024/01/03 08:46:03;;;;;;;27.27;2.75;;;;;;;;;;5114302;28;20023;-32
2024/01/03 08:48:28;;;;;;;25.35;2.75;;;;;;;;;;5114586;28;20110;-32
2024/01/03 08:50:53;;;;;;;25.50;2.90;;;;;;;;;;5114572;28;20470;-33
2024/01/03 08:53:18;;;;;;;26.30;3.23;;;;;;;;;;5114612;28;20023;-32
2024/01/03 08:55:43;;;;;;;26.63;3.43;;;;;;;;;;5114557;28;20281;-32
2024/01/03 08:58:09;;;;;;;22.93;3.07;;;;;;;;;;5114113;28;20458;-32
2024/01/03 09:00:34;;;;;;;27.30;3.20;;;;;;;;;;5114240;28;20309;-32
2024/01/03 09:03:00;;;;;;;23.73;3.17;;;;;;;;;;5114408;28;20250;-32
2024/01/03 09:05:26;;;;;;;20.13;2.47;;;;;;;;;;5114229;28;20028;-32
2024/01/03 09:07:51;;;;;;;23.45;2.90;;;;;;;;;;5114311;28;20524;-32
2024/01/03 09:10:17;;;;;;;20.57;2.67;;;;;;;;;;5113981;28;20028;-32
2024/01/03 09:12:43;;;;;;;25.90;3.53;;;;;;;;;;5113898;28;20294;-32
2024/01/03 09:15:08;;;;;;;24.73;2.90;;;;;;;;;;5113732;28;20012;-32
2024/01/03 09:17:33;;;;;;;28.35;3.40;;;;;;;;;;5113912;28;20019;-32
2024/01/03 09:19:58;;;;;;;16.00;2.73;;;;;;;;;;5113469;28;20026;-32
2024/01/03 09:22:23;;;;;;;24.23;3.10;;;;;;;;;;5114311;28;20264;-32
2024/01/03 09:24:48;;;;;;;22.67;3.13;;;;;;;;;;5114054;28;20642;-31
2024/01/03 09:27:14;;;;;;;14.17;2.40;;;;;;;;;;5114021;28;20270;-32
2024/01/03 09:29:40;;;;;;;17.73;2.42;;;;;;;;;;5113660;28;20608;-32
2024/01/03 09:32:07;;;;;;;22.38;2.45;;;;;;;;;;5113741;28;20025;-32
2024/01/03 09:34:37;;;;;;;15.90;2.22;;;;;;;;;;5113892;28;20020;-31
2024/01/03 09:37:02;;;;;;;17.30;2.33;;;;;;;;;;5113930;28;20028;-32
2024/01/03 09:39:27;;;;;;;21.10;2.50;;;;;;;;;;5113937;28;20019;-32
2024/01/03 09:41:53;;;;;;;23.70;2.70;;;;;;;;;;5113622;28;20062;-32
2024/01/03 09:44:18;;;;;;;15.70;3.10;;;;;;;;;;5113929;28;20084;-32
2024/01/03 09:46:43;;;;;;;15.15;2.33;;;;;;;;;;5113535;28;20015;-31
2024/01/03 09:49:09;;;;;;;8.40;1.30;;;;;;;;;;5114161;28;20164;-31
2024/01/03 09:51:34;;;;;;;13.73;2.13;;;;;;;;;;5113730;28;20023;-32
2024/01/03 09:54:00;;;;;;;9.05;1.95;;;;;;;;;;5113474;28;20045;-33
2024/01/03 09:56:26;;;;;;;12.35;2.00;;;;;;;;;;5113978;28;20141;-32
2024/01/03 09:58:51;;;;;;;9.07;1.85;;;;;;;;;;5095104;28;20047;-33
2024/01/03 10:01:16;;;;;;;9.50;1.67;;;;;;;;;;5113257;28;20567;-32
2024/01/03 10:03:42;;;;;;;6.72;1.40;;;;;;;;;;5113689;28;20475;-33
2024/01/03 10:06:13;;;;;;;10.68;1.88;;;;;;;;;;5113568;28;20115;-32
2024/01/03 10:08:38;;;;;;;11.43;1.95;;;;;;;;;;5113223;28;20042;-32
2024/01/03 10:11:19;;;;;;;11.87;1.83;;;;;;;;;;5113635;28;20020;-33
2024/01/03 10:13:45;;;;;;;10.00;2.50;;;;;;;;;;5113503;28;20357;-32
2024/01/03 10:16:17;;;;;;;11.43;2.10;;;;;;;;;;5113200;28;20443;-31
2024/01/03 10:18:42;;;;;;;16.38;2.63;;;;;;;;;;5113792;28;20090;-35
2024/01/03 10:21:12;;;;;;;16.60;2.53;;;;;;;;;;5113337;28;20478;-32
2024/01/03 10:23:37;;;;;;;16.98;2.50;;;;;;;;;;5113488;28;20676;-31
2024/01/03 10:26:02;;;;;;;18.57;2.17;;;;;;;;;;5113159;28;20055;-32
2024/01/03 10:28:28;;;;;;;27.02;5.05;;;;;;;;;;5113723;28;20254;-33
2024/01/03 10:30:53;;;;;;;19.75;2.72;;;;;;;;;;5113361;28;20442;-32
2024/01/03 10:33:18;;;;;;;19.02;2.42;;;;;;;;;;5116520;28;20538;-32
2024/01/03 10:35:44;;;;;;;22.13;2.45;;;;;;;;;;5117088;28;20145;-32
2024/01/03 10:38:09;;;;;;;20.27;2.40;;;;;;;;;;5117079;28;20462;-32
2024/01/03 10:40:36;;;;;;;17.88;2.47;;;;;;;;;;5116797;28;20022;-33
2024/01/03 10:43:02;;;;;;;18.13;2.53;;;;;;;;;;5116884;28;20026;-32
2024/01/03 10:45:27;;;;;;;21.15;2.85;;;;;;;;;;5117054;28;20446;-31
2024/01/03 10:47:53;;;;;;;21.63;2.28;;;;;;;;;;5117702;28;20015;-32
2024/01/03 10:50:19;;;;;;;29.33;3.28;;;;;;;;;;5116723;28;20016;-32
2024/01/03 10:52:44;;;;;;;18.52;2.53;;;;;;;;;;5116594;28;20094;-32
2024/01/03 10:55:12;;;;;;;20.58;2.47;;;;;;;;;;5116632;28;20412;-32
2024/01/03 10:57:39;;;;;;;20.30;3.40;;;;;;;;;;5116512;28;20034;-32
2024/01/03 11:00:17;;;;;;;19.38;2.90;;;;;;;;;;5116143;28;20402;-31
2024/01/03 11:02:46;;;;;;;18.60;3.03;;;;;;;;;;5116497;28;20115;-32
2024/01/03 11:05:14;;;;;;;14.95;2.40;;;;;;;;;;5116167;28;20041;-31
2024/01/03 11:07:52;;;;;;;17.88;2.65;;;;;;;;;;5116022;28;20020;-31
2024/01/03 11:10:36;;;;;;;19.23;2.83;;;;;;;;;;5116311;28;20023;-32
2024/01/03 11:13:12;;;;;;;22.70;2.83;;;;;;;;;;5115360;28;20031;-32
2024/01/03 11:15:42;;;;;;;17.63;3.08;;;;;;;;;;5115401;28;20058;-32
2024/01/03 11:18:08;;;;;;;26.52;2.75;;;;;;;;;;5115672;28;20462;-32
2024/01/03 11:20:33;;;;;;;24.52;2.92;;;;;;;;;;5097003;28;20077;-35
2024/01/03 11:23:02;;;;;;;13.23;2.10;;;;;;;;;;5113965;28;20378;-32
2024/01/03 11:25:45;;;;;;;18.20;2.80;;;;;;;;;;5115094;28;20261;-32
2024/01/03 11:28:29;;;;;;;16.13;2.03;;;;;;;;;;5115549;28;20008;-33
2024/01/03 11:30:54;;;;;;;27.77;3.92;;;;;;;;;;5115201;28;20459;-32
2024/01/03 11:33:24;;;;;;;16.40;2.73;;;;;;;;;;5115095;28;20064;-33
2024/01/03 11:35:49;;;;;;;22.55;2.45;;;;;;;;;;5115392;28;20284;-32
2024/01/03 11:38:33;;;;;;;21.30;3.25;;;;;;;;;;5115492;28;20378;-32
2024/01/03 11:40:59;;;;;;;19.67;2.58;;;;;;;;;;5115724;28;20374;-33
2024/01/03 11:43:24;;;;;;;19.63;2.50;;;;;;;;;;5115117;28;20019;-32
2024/01/03 11:45:49;;;;;;;28.35;2.97;;;;;;;;;;5115588;28;20282;-33
2024/01/03 11:48:20;;;;;;;31.10;3.60;;;;;;;;;;5115367;28;20019;-33
2024/01/03 11:50:45;;;;;;;17.67;2.58;;;;;;;;;;5115257;28;20245;-33
2024/01/03 11:53:11;;;;;;;32.13;3.50;;;;;;;;;;5115394;28;20091;-33
2024/01/03 11:55:36;;;;;;;22.52;3.08;;;;;;;;;;5114661;28;20261;-33
2024/01/03 11:58:03;;;;;;;24.13;2.80;;;;;;;;;;5115484;28;20016;-33
2024/01/03 12:00:29;;;;;;;24.15;3.13;;;;;;;;;;5114894;28;20131;-32
2024/01/03 12:02:57;;;;;;;22.13;2.90;;;;;;;;;;5115265;28;20039;-33
2024/01/03 12:05:24;;;;;;;20.27;3.05;;;;;;;;;;5115433;28;20062;-32
2024/01/03 12:07:49;;;;;;;25.83;2.70;;;;;;;;;;5115179;28;20015;-32
2024/01/03 12:10:16;;;;;;;24.88;3.03;;;;;;;;;;5115174;28;20016;-33
2024/01/03 12:12:43;;;;;;;22.73;2.88;;;;;;;;;;5114696;28;20015;-32
2024/01/03 12:15:09;;;;;;;23.42;3.00;;;;;;;;;;5115144;28;20423;-33
2024/01/03 12:17:35;;;;;;;21.92;2.50;;;;;;;;;;5115065;28;20098;-33
2024/01/03 12:20:07;;;;;;;19.93;3.07;;;;;;;;;;5114762;28;20418;-32
2024/01/03 12:22:33;;;;;;;23.13;3.85;;;;;;;;;;5115025;28;20459;-33
2024/01/03 12:24:58;;;;;;;22.55;3.28;;;;;;;;;;5114884;28;20015;-32
2024/01/03 12:27:23;;;;;;;15.43;2.20;;;;;;;;;;5114500;28;20023;-33
2024/01/03 12:29:48;;;;;;;19.80;2.70;;;;;;;;;;5114693;28;20273;-33
2024/01/03 12:32:17;;;;;;;21.27;2.92;;;;;;;;;;5114604;28;20401;-32
2024/01/03 12:34:43;;;;;;;19.42;3.00;;;;;;;;;;5114725;28;20008;-32
2024/01/03 12:37:08;;;;;;;20.63;2.97;;;;;;;;;;5114640;28;20046;-32
2024/01/03 12:39:34;;;;;;;28.07;3.30;;;;;;;;;;5114647;28;20020;-33
2024/01/03 12:42:00;;;;;;;27.98;3.40;;;;;;;;;;5114535;28;20656;-33
2024/01/03 12:44:26;;;;;;;24.40;3.20;;;;;;;;;;5113882;28;20011;-33
2024/01/03 12:46:51;;;;;;;30.27;3.38;;;;;;;;;;5114725;28;20022;-32
2024/01/03 12:49:16;;;;;;;22.23;3.00;;;;;;;;;;5114802;28;20019;-33
2024/01/03 12:51:42;;;;;;;21.10;3.08;;;;;;;;;;5114709;28;20257;-33
2024/01/03 12:54:07;;;;;;;23.67;3.85;;;;;;;;;;5113761;28;20076;-32
2024/01/03 12:56:33;;;;;;;19.95;2.88;;;;;;;;;;5114169;28;20416;-33
2024/01/03 12:58:58;;;;;;;22.90;2.83;;;;;;;;;;5114007;28;20045;-32
2024/01/03 13:01:23;;;;;;;18.27;2.80;;;;;;;;;;5114122;28;20286;-32
2024/01/03 13:03:48;;;;;;;16.00;3.10;;;;;;;;;;5114041;28;20781;-32
2024/01/03 13:06:13;;;;;;;18.83;3.27;;;;;;;;;;5113817;28;20368;-32
2024/01/03 13:08:39;;;;;;;23.03;3.90;;;;;;;;;;5113866;28;20012;-32
2024/01/03 13:11:04;;;;;;;25.80;3.92;;;;;;;;;;5114516;28;20077;-32
2024/01/03 13:13:29;;;;;;;32.07;3.80;;;;;;;;;;5114159;28;20370;-32
2024/01/03 13:15:54;;;;;;;27.53;4.03;;;;;;;;;;5114472;28;20332;-32
2024/01/03 13:18:20;;;;;;;23.27;3.60;;;;;;;;;;5113951;28;20660;-33
2024/01/03 13:20:45;;;;;;;35.67;3.87;;;;;;;;;;5114045;28;20347;-33
2024/01/03 13:23:10;;;;;;;33.10;4.07;;;;;;;;;;5113754;28;20022;-33
2024/01/03 13:25:35;;;;;;;40.60;4.37;;;;;;;;;;5114322;28;20016;-33
2024/01/03 13:28:01;;;;;;;28.47;3.67;;;;;;;;;;5113771;28;20725;-33
2024/01/03 13:30:28;;;;;;;28.33;3.63;;;;;;;;;;5113997;28;20117;-32
2024/01/03 13:32:53;;;;;;;34.88;3.90;;;;;;;;;;5113229;28;20763;-33
2024/01/03 13:35:18;;;;;;;21.97;3.37;;;;;;;;;;5113295;28;20016;-32
2024/01/03 13:37:43;;;;;;;17.17;3.10;;;;;;;;;;5113532;28;20620;-32
2024/01/03 13:40:09;;;;;;;12.60;2.10;;;;;;;;;;5113714;28;20340;-32
2024/01/03 13:42:34;;;;;;;15.25;2.28;;;;;;;;;;5113886;28;20265;-33
2024/01/03 13:44:59;;;;;;;16.30;3.00;;;;;;;;;;5113605;28;20016;-33
2024/01/03 13:47:24;;;;;;;13.73;2.50;;;;;;;;;;5114084;28;20019;-33
2024/01/03 13:49:49;;;;;;;15.20;2.20;;;;;;;;;;5114177;28;20639;-33
2024/01/03 13:52:15;;;;;;;27.73;3.67;;;;;;;;;;5113471;28;20016;-33
2024/01/03 13:54:40;;;;;;;16.73;2.60;;;;;;;;;;5113724;28;20257;-33
2024/01/03 13:57:05;;;;;;;17.80;3.33;;;;;;;;;;5111981;28;20015;-32
2024/01/03 13:59:30;;;;;;;13.57;2.33;;;;;;;;;;5113263;28;20261;-33
2024/01/03 14:01:55;;;;;;;15.03;2.13;;;;;;;;;;5113399;28;20283;-32
2024/01/03 14:04:20;;;;;;;15.77;2.47;;;;;;;;;;5113746;28;20616;-32
2024/01/03 14:06:46;;;;;;;14.48;2.33;;;;;;;;;;5116279;28;20277;-33
2024/01/03 14:09:14;;;;;;;11.20;2.33;;;;;;;;;;5117516;28;20016;-32
2024/01/03 14:11:39;;;;;;;11.88;1.95;;;;;;;;;;5117213;28;20463;-32
2024/01/03 14:14:04;;;;;;;14.17;2.53;;;;;;;;;;5117781;28;20023;-32
2024/01/03 14:16:30;;;;;;;13.48;2.28;;;;;;;;;;5117519;28;20328;-33
2024/01/03 14:18:55;;;;;;;12.20;2.13;;;;;;;;;;5117458;28;20495;-33
2024/01/03 14:21:20;;;;;;;23.03;3.30;;;;;;;;;;5117317;28;20271;-33
2024/01/03 14:23:47;;;;;;;17.50;2.67;;;;;;;;;;5117659;28;20257;-32